sensor_id;sensor_type;location;lat;lon;timestamp;temperature;humidity
64638;HTU21D;51049;45.046;38.950;2023-06-19T00:00:20;21.68;70.24
64638;HTU21D;51049;45.046;38.950;2023-06-19T00:02:46;21.64;70.30
64638;HTU21D;51049;45.046;38.950;2023-06-19T00:05:12;21.59;70.36
64638;HTU21D;51049;45.046;38.950;2023-06-19T00:07:39;21.55;70.44
64638;HTU21D;51049;45.046;38.950;2023-06-19T00:10:05;21.50;70.55
64638;HTU21D;51049;45.046;38.950;2023-06-19T00:12:32;21.46;70.64
64638;HTU21D;51049;45.046;38.950;2023-06-19T00:14:58;21.40;70.74
64638;HTU21D;51049;45.046;38.950;2023-06-19T00:17:24;21.36;70.84
64638;HTU21D;51049;45.046;38.950;2023-06-19T00:19:53;21.31;70.94
64638;HTU21D;51049;45.046;38.950;2023-06-19T00:22:19;21.27;71.03
64638;HTU21D;51049;45.046;38.950;2023-06-19T00:24:45;21.22;71.10
64638;HTU21D;51049;45.046;38.950;2023-06-19T00:27:11;21.18;71.19
64638;HTU21D;51049;45.046;38.950;2023-06-19T00:29:37;21.13;71.29
64638;HTU21D;51049;45.046;38.950;2023-06-19T00:32:03;21.08;71.41
64638;HTU21D;51049;45.046;38.950;2023-06-19T00:34:30;21.02;71.54
64638;HTU21D;51049;45.046;38.950;2023-06-19T00:36:57;20.96;71.64
64638;HTU21D;51049;45.046;38.950;2023-06-19T00:39:24;20.92;71.74
64638;HTU21D;51049;45.046;38.950;2023-06-19T00:41:55;20.87;71.90
64638;HTU21D;51049;45.046;38.950;2023-06-19T00:44:21;20.83;71.93
64638;HTU21D;51049;45.046;38.950;2023-06-19T00:46:51;20.76;72.15
64638;HTU21D;51049;45.046;38.950;2023-06-19T00:49:20;20.70;72.20
64638;HTU21D;51049;45.046;38.950;2023-06-19T00:51:47;20.65;72.35
64638;HTU21D;51049;45.046;38.950;2023-06-19T00:54:14;20.60;72.47
64638;HTU21D;51049;45.046;38.950;2023-06-19T00:56:40;20.55;72.61
64638;HTU21D;51049;45.046;38.950;2023-06-19T00:59:13;20.49;72.79
64638;HTU21D;51049;45.046;38.950;2023-06-19T01:01:42;20.46;72.80
64638;HTU21D;51049;45.046;38.950;2023-06-19T01:04:08;20.43;72.91
64638;HTU21D;51049;45.046;38.950;2023-06-19T01:06:57;20.39;72.98
64638;HTU21D;51049;45.046;38.950;2023-06-19T01:09:34;20.35;73.06
64638;HTU21D;51049;45.046;38.950;2023-06-19T01:12:12;20.34;73.16
64638;HTU21D;51049;45.046;38.950;2023-06-19T01:14:49;20.31;73.22
64638;HTU21D;51049;45.046;38.950;2023-06-19T01:17:16;20.30;73.28
64638;HTU21D;51049;45.046;38.950;2023-06-19T01:19:42;20.27;73.35
64638;HTU21D;51049;45.046;38.950;2023-06-19T01:22:08;20.24;73.48
64638;HTU21D;51049;45.046;38.950;2023-06-19T01:24:34;20.22;73.57
64638;HTU21D;51049;45.046;38.950;2023-06-19T01:27:00;20.18;73.65
64638;HTU21D;51049;45.046;38.950;2023-06-19T01:29:26;20.18;73.73
64638;HTU21D;51049;45.046;38.950;2023-06-19T01:32:02;20.14;73.90
64638;HTU21D;51049;45.046;38.950;2023-06-19T01:34:31;20.12;73.87
64638;HTU21D;51049;45.046;38.950;2023-06-19T01:36:57;20.11;73.96
64638;HTU21D;51049;45.046;38.950;2023-06-19T01:39:24;20.10;74.04
64638;HTU21D;51049;45.046;38.950;2023-06-19T01:41:52;20.09;74.12
64638;HTU21D;51049;45.046;38.950;2023-06-19T01:44:18;20.06;74.18
64638;HTU21D;51049;45.046;38.950;2023-06-19T01:46:49;20.07;74.31
64638;HTU21D;51049;45.046;38.950;2023-06-19T01:49:16;20.06;74.26
64638;HTU21D;51049;45.046;38.950;2023-06-19T01:51:42;20.06;74.35
64638;HTU21D;51049;45.046;38.950;2023-06-19T01:54:08;20.04;74.43
64638;HTU21D;51049;45.046;38.950;2023-06-19T01:56:34;20.03;74.50
64638;HTU21D;51049;45.046;38.950;2023-06-19T01:59:01;20.03;74.58
64638;HTU21D;51049;45.046;38.950;2023-06-19T02:01:27;20.02;74.64
64638;HTU21D;51049;45.046;38.950;2023-06-19T02:03:53;20.03;74.71
64638;HTU21D;51049;45.046;38.950;2023-06-19T02:06:19;20.01;74.76
64638;HTU21D;51049;45.046;38.950;2023-06-19T02:08:47;20.02;74.82
64638;HTU21D;51049;45.046;38.950;2023-06-19T02:11:14;20.02;74.86
64638;HTU21D;51049;45.046;38.950;2023-06-19T02:13:40;20.02;74.92
64638;HTU21D;51049;45.046;38.950;2023-06-19T02:16:06;20.02;74.96
64638;HTU21D;51049;45.046;38.950;2023-06-19T02:18:32;20.05;75.00
64638;HTU21D;51049;45.046;38.950;2023-06-19T02:20:58;20.07;75.04
64638;HTU21D;51049;45.046;38.950;2023-06-19T02:23:24;20.09;75.08
64638;HTU21D;51049;45.046;38.950;2023-06-19T02:25:50;20.13;75.09
64638;HTU21D;51049;45.046;38.950;2023-06-19T02:28:16;20.15;75.12
64638;HTU21D;51049;45.046;38.950;2023-06-19T02:30:42;20.20;75.15
64638;HTU21D;51049;45.046;38.950;2023-06-19T02:33:08;20.24;75.17
64638;HTU21D;51049;45.046;38.950;2023-06-19T02:35:34;20.28;75.19
64638;HTU21D;51049;45.046;38.950;2023-06-19T02:38:00;20.33;75.22
64638;HTU21D;51049;45.046;38.950;2023-06-19T02:40:26;20.40;75.24
64638;HTU21D;51049;45.046;38.950;2023-06-19T02:42:53;20.45;75.22
64638;HTU21D;51049;45.046;38.950;2023-06-19T02:45:18;20.49;75.23
64638;HTU21D;51049;45.046;38.950;2023-06-19T02:47:46;20.55;75.22
64638;HTU21D;51049;45.046;38.950;2023-06-19T02:50:12;20.63;75.21
64638;HTU21D;51049;45.046;38.950;2023-06-19T02:52:38;20.70;75.18
64638;HTU21D;51049;45.046;38.950;2023-06-19T02:55:04;20.79;75.15
64638;HTU21D;51049;45.046;38.950;2023-06-19T02:57:32;20.89;75.09
64638;HTU21D;51049;45.046;38.950;2023-06-19T02:59:59;21.01;75.03
64638;HTU21D;51049;45.046;38.950;2023-06-19T03:02:26;21.10;74.94
64638;HTU21D;51049;45.046;38.950;2023-06-19T03:04:52;21.22;74.83
64638;HTU21D;51049;45.046;38.950;2023-06-19T03:07:18;21.32;74.71
64638;HTU21D;51049;45.046;38.950;2023-06-19T03:09:44;21.43;74.63
64638;HTU21D;51049;45.046;38.950;2023-06-19T03:12:10;21.52;74.54
64638;HTU21D;51049;45.046;38.950;2023-06-19T03:14:36;21.64;74.44
64638;HTU21D;51049;45.046;38.950;2023-06-19T03:17:03;21.74;74.29
64638;HTU21D;51049;45.046;38.950;2023-06-19T03:19:30;21.85;74.17
64638;HTU21D;51049;45.046;38.950;2023-06-19T03:21:56;21.95;74.04
64638;HTU21D;51049;45.046;38.950;2023-06-19T03:24:22;22.04;73.92
64638;HTU21D;51049;45.046;38.950;2023-06-19T03:26:49;22.12;73.79
64638;HTU21D;51049;45.046;38.950;2023-06-19T03:29:15;22.23;73.67
64638;HTU21D;51049;45.046;38.950;2023-06-19T03:32:01;22.33;73.49
64638;HTU21D;51049;45.046;38.950;2023-06-19T03:34:31;22.41;73.38
64638;HTU21D;51049;45.046;38.950;2023-06-19T03:36:58;22.50;73.26
64638;HTU21D;51049;45.046;38.950;2023-06-19T03:39:24;22.57;73.14
64638;HTU21D;51049;45.046;38.950;2023-06-19T03:41:53;22.67;73.02
64638;HTU21D;51049;45.046;38.950;2023-06-19T03:44:19;22.78;72.93
64638;HTU21D;51049;45.046;38.950;2023-06-19T03:46:46;22.86;72.82
64638;HTU21D;51049;45.046;38.950;2023-06-19T03:49:12;22.95;72.68
64638;HTU21D;51049;45.046;38.950;2023-06-19T03:51:38;23.03;72.54
64638;HTU21D;51049;45.046;38.950;2023-06-19T03:54:04;23.11;72.46
64638;HTU21D;51049;45.046;38.950;2023-06-19T03:56:30;23.21;72.35
64638;HTU21D;51049;45.046;38.950;2023-06-19T03:58:56;23.30;72.22
64638;HTU21D;51049;45.046;38.950;2023-06-19T04:01:22;23.41;72.13
64638;HTU21D;51049;45.046;38.950;2023-06-19T04:03:48;23.50;71.93
64638;HTU21D;51049;45.046;38.950;2023-06-19T04:06:14;23.59;71.76
64638;HTU21D;51049;45.046;38.950;2023-06-19T04:08:40;23.70;71.65
64638;HTU21D;51049;45.046;38.950;2023-06-19T04:11:06;23.81;71.48
64638;HTU21D;51049;45.046;38.950;2023-06-19T04:13:32;23.91;71.28
64638;HTU21D;51049;45.046;38.950;2023-06-19T04:15:58;24.02;71.05
64638;HTU21D;51049;45.046;38.950;2023-06-19T04:18:26;24.12;70.81
64638;HTU21D;51049;45.046;38.950;2023-06-19T04:20:53;24.18;70.63
64638;HTU21D;51049;45.046;38.950;2023-06-19T04:23:19;24.27;70.48
64638;HTU21D;51049;45.046;38.950;2023-06-19T04:25:45;24.36;70.29
64638;HTU21D;51049;45.046;38.950;2023-06-19T04:28:11;24.43;70.08
64638;HTU21D;51049;45.046;38.950;2023-06-19T04:30:37;24.51;69.93
64638;HTU21D;51049;45.046;38.950;2023-06-19T04:33:05;24.59;69.72
64638;HTU21D;51049;45.046;38.950;2023-06-19T04:35:33;24.68;69.57
64638;HTU21D;51049;45.046;38.950;2023-06-19T04:38:00;24.74;69.41
64638;HTU21D;51049;45.046;38.950;2023-06-19T04:40:27;24.80;69.20
64638;HTU21D;51049;45.046;38.950;2023-06-19T04:42:53;24.89;69.00
64638;HTU21D;51049;45.046;38.950;2023-06-19T04:45:19;25.00;68.84
64638;HTU21D;51049;45.046;38.950;2023-06-19T04:47:45;25.12;68.61
64638;HTU21D;51049;45.046;38.950;2023-06-19T04:50:11;25.23;68.39
64638;HTU21D;51049;45.046;38.950;2023-06-19T04:52:37;25.37;68.11
64638;HTU21D;51049;45.046;38.950;2023-06-19T04:55:07;25.46;67.75
64638;HTU21D;51049;45.046;38.950;2023-06-19T04:57:36;25.53;67.59
64638;HTU21D;51049;45.046;38.950;2023-06-19T05:00:06;25.65;67.34
64638;HTU21D;51049;45.046;38.950;2023-06-19T05:02:33;25.78;67.05
64638;HTU21D;51049;45.046;38.950;2023-06-19T05:04:59;25.87;66.70
64638;HTU21D;51049;45.046;38.950;2023-06-19T05:07:32;25.92;66.52
64638;HTU21D;51049;45.046;38.950;2023-06-19T05:09:59;26.02;66.23
64638;HTU21D;51049;45.046;38.950;2023-06-19T05:12:24;26.08;65.99
64638;HTU21D;51049;45.046;38.950;2023-06-19T05:14:50;26.19;65.82
64638;HTU21D;51049;45.046;38.950;2023-06-19T05:17:16;26.30;65.53
64638;HTU21D;51049;45.046;38.950;2023-06-19T05:19:42;26.39;65.21
64638;HTU21D;51049;45.046;38.950;2023-06-19T05:22:08;26.46;64.92
64638;HTU21D;51049;45.046;38.950;2023-06-19T05:24:34;26.48;64.74
64638;HTU21D;51049;45.046;38.950;2023-06-19T05:27:00;26.52;64.45
64638;HTU21D;51049;45.046;38.950;2023-06-19T05:29:26;26.53;64.56
64638;HTU21D;51049;45.046;38.950;2023-06-19T05:31:52;26.64;64.42
64638;HTU21D;51049;45.046;38.950;2023-06-19T05:34:18;26.73;64.20
64638;HTU21D;51049;45.046;38.950;2023-06-19T05:36:44;26.85;64.05
64638;HTU21D;51049;45.046;38.950;2023-06-19T05:39:13;27.04;63.70
64638;HTU21D;51049;45.046;38.950;2023-06-19T05:41:39;27.19;63.38
64638;HTU21D;51049;45.046;38.950;2023-06-19T05:44:05;27.34;63.08
64638;HTU21D;51049;45.046;38.950;2023-06-19T05:46:31;27.45;62.91
64638;HTU21D;51049;45.046;38.950;2023-06-19T05:48:56;27.57;62.50
64638;HTU21D;51049;45.046;38.950;2023-06-19T05:51:22;27.66;62.10
64638;HTU21D;51049;45.046;38.950;2023-06-19T05:53:48;27.70;61.83
64638;HTU21D;51049;45.046;38.950;2023-06-19T05:56:17;27.78;61.30
64638;HTU21D;51049;45.046;38.950;2023-06-19T05:58:43;27.82;61.20
64638;HTU21D;51049;45.046;38.950;2023-06-19T06:01:09;27.91;61.05
64638;HTU21D;51049;45.046;38.950;2023-06-19T06:03:35;28.05;60.68
64638;HTU21D;51049;45.046;38.950;2023-06-19T06:06:01;28.17;60.18
64638;HTU21D;51049;45.046;38.950;2023-06-19T06:08:30;28.28;59.75
64638;HTU21D;51049;45.046;38.950;2023-06-19T06:10:56;28.38;59.07
64638;HTU21D;51049;45.046;38.950;2023-06-19T06:13:22;28.41;59.05
64638;HTU21D;51049;45.046;38.950;2023-06-19T06:15:49;28.52;59.03
64638;HTU21D;51049;45.046;38.950;2023-06-19T06:18:15;28.62;58.42
64638;HTU21D;51049;45.046;38.950;2023-06-19T06:20:41;28.63;58.28
64638;HTU21D;51049;45.046;38.950;2023-06-19T06:23:07;28.59;58.28
64638;HTU21D;51049;45.046;38.950;2023-06-19T06:25:33;28.47;57.95
64638;HTU21D;51049;45.046;38.950;2023-06-19T06:28:00;28.29;58.22
64638;HTU21D;51049;45.046;38.950;2023-06-19T06:30:26;28.24;58.19
64638;HTU21D;51049;45.046;38.950;2023-06-19T06:32:53;28.26;58.33
64638;HTU21D;51049;45.046;38.950;2023-06-19T06:35:19;28.39;58.13
64638;HTU21D;51049;45.046;38.950;2023-06-19T06:37:45;28.53;57.90
64638;HTU21D;51049;45.046;38.950;2023-06-19T06:40:11;28.65;57.66
64638;HTU21D;51049;45.046;38.950;2023-06-19T06:42:38;28.75;57.32
64638;HTU21D;51049;45.046;38.950;2023-06-19T06:45:05;28.80;57.18
64638;HTU21D;51049;45.046;38.950;2023-06-19T06:47:32;28.93;57.17
64638;HTU21D;51049;45.046;38.950;2023-06-19T06:49:58;29.06;57.13
64638;HTU21D;51049;45.046;38.950;2023-06-19T06:52:24;29.14;56.88
64638;HTU21D;51049;45.046;38.950;2023-06-19T06:54:50;29.30;56.81
64638;HTU21D;51049;45.046;38.950;2023-06-19T06:57:16;29.45;56.48
64638;HTU21D;51049;45.046;38.950;2023-06-19T06:59:42;29.54;56.26
64638;HTU21D;51049;45.046;38.950;2023-06-19T07:02:08;29.66;55.97
64638;HTU21D;51049;45.046;38.950;2023-06-19T07:04:34;29.62;55.59
64638;HTU21D;51049;45.046;38.950;2023-06-19T07:07:00;29.63;55.45
64638;HTU21D;51049;45.046;38.950;2023-06-19T07:09:27;29.74;54.69
64638;HTU21D;51049;45.046;38.950;2023-06-19T07:11:53;29.80;54.26
64638;HTU21D;51049;45.046;38.950;2023-06-19T07:14:19;29.85;53.53
64638;HTU21D;51049;45.046;38.950;2023-06-19T07:16:45;29.95;53.06
64638;HTU21D;51049;45.046;38.950;2023-06-19T07:19:11;30.04;52.75
64638;HTU21D;51049;45.046;38.950;2023-06-19T07:21:38;30.18;52.17
64638;HTU21D;51049;45.046;38.950;2023-06-19T07:24:04;30.31;51.79
64638;HTU21D;51049;45.046;38.950;2023-06-19T07:26:31;30.37;51.67
64638;HTU21D;51049;45.046;38.950;2023-06-19T07:28:57;30.48;51.35
64638;HTU21D;51049;45.046;38.950;2023-06-19T07:31:23;30.55;50.79
64638;HTU21D;51049;45.046;38.950;2023-06-19T07:33:49;30.60;50.76
64638;HTU21D;51049;45.046;38.950;2023-06-19T07:36:15;30.70;50.73
64638;HTU21D;51049;45.046;38.950;2023-06-19T07:38:45;30.83;50.29
64638;HTU21D;51049;45.046;38.950;2023-06-19T07:41:11;30.94;50.11
64638;HTU21D;51049;45.046;38.950;2023-06-19T07:43:37;31.06;49.79
64638;HTU21D;51049;45.046;38.950;2023-06-19T07:46:04;31.15;49.49
64638;HTU21D;51049;45.046;38.950;2023-06-19T07:48:30;31.22;49.11
64638;HTU21D;51049;45.046;38.950;2023-06-19T07:50:56;31.15;48.64
64638;HTU21D;51049;45.046;38.950;2023-06-19T07:53:22;31.18;48.52
64638;HTU21D;51049;45.046;38.950;2023-06-19T07:55:48;31.22;48.41
64638;HTU21D;51049;45.046;38.950;2023-06-19T07:58:14;31.31;48.24
64638;HTU21D;51049;45.046;38.950;2023-06-19T08:00:40;31.50;47.63
64638;HTU21D;51049;45.046;38.950;2023-06-19T08:03:06;31.69;46.89
64638;HTU21D;51049;45.046;38.950;2023-06-19T08:05:32;31.81;46.25
64638;HTU21D;51049;45.046;38.950;2023-06-19T08:08:01;31.96;45.75
64638;HTU21D;51049;45.046;38.950;2023-06-19T08:10:27;32.01;45.35
64638;HTU21D;51049;45.046;38.950;2023-06-19T08:12:53;32.07;45.30
64638;HTU21D;51049;45.046;38.950;2023-06-19T08:15:19;32.12;45.38
64638;HTU21D;51049;45.046;38.950;2023-06-19T08:17:45;32.27;45.20
64638;HTU21D;51049;45.046;38.950;2023-06-19T08:20:12;32.19;44.94
64638;HTU21D;51049;45.046;38.950;2023-06-19T08:22:38;31.98;45.30
64638;HTU21D;51049;45.046;38.950;2023-06-19T08:25:05;31.83;45.89
64638;HTU21D;51049;45.046;38.950;2023-06-19T08:27:50;31.85;46.38
64638;HTU21D;51049;45.046;38.950;2023-06-19T08:30:16;31.89;45.93
64638;HTU21D;51049;45.046;38.950;2023-06-19T08:32:43;31.93;45.59
64638;HTU21D;51049;45.046;38.950;2023-06-19T08:35:09;31.97;45.63
64638;HTU21D;51049;45.046;38.950;2023-06-19T08:37:35;32.05;45.44
64638;HTU21D;51049;45.046;38.950;2023-06-19T08:40:01;32.01;45.23
64638;HTU21D;51049;45.046;38.950;2023-06-19T08:42:29;31.83;45.32
64638;HTU21D;51049;45.046;38.950;2023-06-19T08:44:55;31.73;45.73
64638;HTU21D;51049;45.046;38.950;2023-06-19T08:47:40;31.80;45.71
64638;HTU21D;51049;45.046;38.950;2023-06-19T08:50:06;31.89;45.27
64638;HTU21D;51049;45.046;38.950;2023-06-19T08:52:33;31.99;45.11
64638;HTU21D;51049;45.046;38.950;2023-06-19T08:55:01;32.11;44.71
64638;HTU21D;51049;45.046;38.950;2023-06-19T08:57:35;32.22;44.50
64638;HTU21D;51049;45.046;38.950;2023-06-19T09:00:27;32.34;44.53
64638;HTU21D;51049;45.046;38.950;2023-06-19T09:03:01;32.48;43.84
64638;HTU21D;51049;45.046;38.950;2023-06-19T09:05:27;32.50;43.60
64638;HTU21D;51049;45.046;38.950;2023-06-19T09:08:00;32.53;43.64
64638;HTU21D;51049;45.046;38.950;2023-06-19T09:10:28;32.63;43.16
64638;HTU21D;51049;45.046;38.950;2023-06-19T09:12:59;32.75;43.00
64638;HTU21D;51049;45.046;38.950;2023-06-19T09:15:43;32.86;42.36
64638;HTU21D;51049;45.046;38.950;2023-06-19T09:18:10;32.85;42.03
64638;HTU21D;51049;45.046;38.950;2023-06-19T09:20:41;32.84;41.84
64638;HTU21D;51049;45.046;38.950;2023-06-19T09:23:28;32.96;41.55
64638;HTU21D;51049;45.046;38.950;2023-06-19T09:26:15;33.01;41.52
64638;HTU21D;51049;45.046;38.950;2023-06-19T09:28:42;33.20;41.06
64638;HTU21D;51049;45.046;38.950;2023-06-19T09:31:08;33.43;40.52
64638;HTU21D;51049;45.046;38.950;2023-06-19T09:33:34;33.62;40.44
64638;HTU21D;51049;45.046;38.950;2023-06-19T09:36:03;33.78;39.87
64638;HTU21D;51049;45.046;38.950;2023-06-19T09:38:32;33.78;39.67
64638;HTU21D;51049;45.046;38.950;2023-06-19T09:41:01;33.76;39.65
64638;HTU21D;51049;45.046;38.950;2023-06-19T09:43:47;33.67;39.61
64638;HTU21D;51049;45.046;38.950;2023-06-19T09:46:35;33.60;39.64
64638;HTU21D;51049;45.046;38.950;2023-06-19T09:49:22;33.57;39.59
64638;HTU21D;51049;45.046;38.950;2023-06-19T09:51:51;33.60;39.62
64638;HTU21D;51049;45.046;38.950;2023-06-19T09:54:36;33.58;39.62
64638;HTU21D;51049;45.046;38.950;2023-06-19T09:57:04;33.47;39.55
64638;HTU21D;51049;45.046;38.950;2023-06-19T09:59:30;33.46;39.38
64638;HTU21D;51049;45.046;38.950;2023-06-19T10:02:33;33.40;39.59
64638;HTU21D;51049;45.046;38.950;2023-06-19T10:05:31;33.23;39.42
64638;HTU21D;51049;45.046;38.950;2023-06-19T10:07:57;33.21;39.12
64638;HTU21D;51049;45.046;38.950;2023-06-19T10:10:27;33.29;39.17
64638;HTU21D;51049;45.046;38.950;2023-06-19T10:13:16;33.52;39.15
64638;HTU21D;51049;45.046;38.950;2023-06-19T10:15:44;33.74;38.29
64638;HTU21D;51049;45.046;38.950;2023-06-19T10:18:17;33.96;37.79
64638;HTU21D;51049;45.046;38.950;2023-06-19T10:20:45;34.11;36.84
64638;HTU21D;51049;45.046;38.950;2023-06-19T10:23:16;34.27;37.07
64638;HTU21D;51049;45.046;38.950;2023-06-19T10:25:45;34.48;36.80
64638;HTU21D;51049;45.046;38.950;2023-06-19T10:31:40;34.18;37.48
64638;HTU21D;51049;45.046;38.950;2023-06-19T10:34:06;33.90;37.51
64638;HTU21D;51049;45.046;38.950;2023-06-19T10:36:32;33.57;37.88
64638;HTU21D;51049;45.046;38.950;2023-06-19T10:38:58;33.21;38.38
64638;HTU21D;51049;45.046;38.950;2023-06-19T10:41:25;32.86;38.70
64638;HTU21D;51049;45.046;38.950;2023-06-19T10:44:13;32.44;39.10
64638;HTU21D;51049;45.046;38.950;2023-06-19T10:46:59;32.05;39.75
64638;HTU21D;51049;45.046;38.950;2023-06-19T10:49:43;31.78;39.85
64638;HTU21D;51049;45.046;38.950;2023-06-19T10:52:09;31.59;40.25
64638;HTU21D;51049;45.046;38.950;2023-06-19T10:54:35;31.43;40.33
64638;HTU21D;51049;45.046;38.950;2023-06-19T10:57:04;31.27;40.51
64638;HTU21D;51049;45.046;38.950;2023-06-19T11:02:57;30.99;41.20
64638;HTU21D;51049;45.046;38.950;2023-06-19T11:05:25;30.86;41.10
64638;HTU21D;51049;45.046;38.950;2023-06-19T11:10:41;30.63;41.61
64638;HTU21D;51049;45.046;38.950;2023-06-19T11:13:26;30.52;41.79
64638;HTU21D;51049;45.046;38.950;2023-06-19T11:18:37;30.28;42.13
64638;HTU21D;51049;45.046;38.950;2023-06-19T11:21:03;30.12;42.44
64638;HTU21D;51049;45.046;38.950;2023-06-19T11:29:26;29.89;43.19
64638;HTU21D;51049;45.046;38.950;2023-06-19T11:32:05;29.86;43.51
64638;HTU21D;51049;45.046;38.950;2023-06-19T11:35:12;29.80;43.55
64638;HTU21D;51049;45.046;38.950;2023-06-19T11:40:27;29.66;43.26
64638;HTU21D;51049;45.046;38.950;2023-06-19T11:42:56;29.59;43.23
64638;HTU21D;51049;45.046;38.950;2023-06-19T11:45:22;29.53;43.39
64638;HTU21D;51049;45.046;38.950;2023-06-19T11:47:49;29.51;43.81
64638;HTU21D;51049;45.046;38.950;2023-06-19T11:50:16;29.44;44.55
64638;HTU21D;51049;45.046;38.950;2023-06-19T11:52:43;29.22;45.58
64638;HTU21D;51049;45.046;38.950;2023-06-19T11:55:13;28.98;46.22
64638;HTU21D;51049;45.046;38.950;2023-06-19T11:57:39;28.74;46.89
64638;HTU21D;51049;45.046;38.950;2023-06-19T12:00:15;28.53;47.77
64638;HTU21D;51049;45.046;38.950;2023-06-19T12:02:44;28.38;48.33
64638;HTU21D;51049;45.046;38.950;2023-06-19T12:05:12;28.26;48.82
64638;HTU21D;51049;45.046;38.950;2023-06-19T12:07:38;28.17;49.21
64638;HTU21D;51049;45.046;38.950;2023-06-19T12:10:05;28.06;49.84
64638;HTU21D;51049;45.046;38.950;2023-06-19T12:12:36;27.96;50.34
64638;HTU21D;51049;45.046;38.950;2023-06-19T12:15:04;27.86;50.58
64638;HTU21D;51049;45.046;38.950;2023-06-19T12:17:31;27.80;50.85
64638;HTU21D;51049;45.046;38.950;2023-06-19T12:19:57;27.75;50.55
64638;HTU21D;51049;45.046;38.950;2023-06-19T12:22:23;27.72;50.62
64638;HTU21D;51049;45.046;38.950;2023-06-19T12:24:49;27.70;51.08
64638;HTU21D;51049;45.046;38.950;2023-06-19T12:27:15;27.68;50.95
64638;HTU21D;51049;45.046;38.950;2023-06-19T12:29:40;27.66;50.73
64638;HTU21D;51049;45.046;38.950;2023-06-19T12:32:07;27.65;50.70
64638;HTU21D;51049;45.046;38.950;2023-06-19T12:34:33;27.63;50.43
64638;HTU21D;51049;45.046;38.950;2023-06-19T12:36:59;27.61;50.43
64638;HTU21D;51049;45.046;38.950;2023-06-19T12:39:25;27.60;50.40
64638;HTU21D;51049;45.046;38.950;2023-06-19T12:41:52;27.58;50.23
64638;HTU21D;51049;45.046;38.950;2023-06-19T12:44:21;27.57;50.18
64638;HTU21D;51049;45.046;38.950;2023-06-19T12:46:48;27.56;50.20
64638;HTU21D;51049;45.046;38.950;2023-06-19T12:49:14;27.54;50.21
64638;HTU21D;51049;45.046;38.950;2023-06-19T12:51:40;27.53;50.35
64638;HTU21D;51049;45.046;38.950;2023-06-19T12:54:06;27.49;50.32
64638;HTU21D;51049;45.046;38.950;2023-06-19T12:56:32;27.44;50.40
64638;HTU21D;51049;45.046;38.950;2023-06-19T12:58:58;27.42;50.43
64638;HTU21D;51049;45.046;38.950;2023-06-19T13:01:23;27.38;50.52
64638;HTU21D;51049;45.046;38.950;2023-06-19T13:03:49;27.35;50.69
64638;HTU21D;51049;45.046;38.950;2023-06-19T13:06:15;27.29;50.88
64638;HTU21D;51049;45.046;38.950;2023-06-19T13:08:41;27.27;51.01
64638;HTU21D;51049;45.046;38.950;2023-06-19T13:11:08;27.24;51.19
64638;HTU21D;51049;45.046;38.950;2023-06-19T13:13:34;27.21;51.30
64638;HTU21D;51049;45.046;38.950;2023-06-19T13:16:00;27.20;51.40
64638;HTU21D;51049;45.046;38.950;2023-06-19T13:18:26;27.16;51.53
64638;HTU21D;51049;45.046;38.950;2023-06-19T13:20:52;27.13;51.64
64638;HTU21D;51049;45.046;38.950;2023-06-19T13:23:17;27.10;51.77
64638;HTU21D;51049;45.046;38.950;2023-06-19T13:25:43;27.05;51.94
64638;HTU21D;51049;45.046;38.950;2023-06-19T13:28:09;27.00;52.04
64638;HTU21D;51049;45.046;38.950;2023-06-19T13:30:35;26.96;52.32
64638;HTU21D;51049;45.046;38.950;2023-06-19T13:33:02;26.91;52.58
64638;HTU21D;51049;45.046;38.950;2023-06-19T13:35:31;26.78;52.90
64638;HTU21D;51049;45.046;38.950;2023-06-19T13:37:57;26.51;53.54
64638;HTU21D;51049;45.046;38.950;2023-06-19T13:40:23;26.22;54.24
64638;HTU21D;51049;45.046;38.950;2023-06-19T13:42:49;25.95;54.81
64638;HTU21D;51049;45.046;38.950;2023-06-19T13:45:15;25.76;55.31
64638;HTU21D;51049;45.046;38.950;2023-06-19T13:47:41;25.61;55.94
64638;HTU21D;51049;45.046;38.950;2023-06-19T13:50:07;25.43;56.36
64638;HTU21D;51049;45.046;38.950;2023-06-19T13:52:34;25.15;56.72
64638;HTU21D;51049;45.046;38.950;2023-06-19T13:55:02;24.82;57.03
64638;HTU21D;51049;45.046;38.950;2023-06-19T13:57:28;24.40;57.55
64638;HTU21D;51049;45.046;38.950;2023-06-19T13:59:54;23.99;58.41
64638;HTU21D;51049;45.046;38.950;2023-06-19T14:02:20;23.57;58.98
64638;HTU21D;51049;45.046;38.950;2023-06-19T14:04:46;23.23;59.61
64638;HTU21D;51049;45.046;38.950;2023-06-19T14:07:11;22.95;60.22
64638;HTU21D;51049;45.046;38.950;2023-06-19T14:09:37;22.69;60.76
64638;HTU21D;51049;45.046;38.950;2023-06-19T14:12:04;22.48;61.31
64638;HTU21D;51049;45.046;38.950;2023-06-19T14:14:30;22.25;61.89
64638;HTU21D;51049;45.046;38.950;2023-06-19T14:16:56;22.04;62.37
64638;HTU21D;51049;45.046;38.950;2023-06-19T14:19:23;21.82;62.68
64638;HTU21D;51049;45.046;38.950;2023-06-19T14:21:50;21.66;63.27
64638;HTU21D;51049;45.046;38.950;2023-06-19T14:24:16;21.55;63.53
64638;HTU21D;51049;45.046;38.950;2023-06-19T14:26:42;21.46;63.95
64638;HTU21D;51049;45.046;38.950;2023-06-19T14:29:08;21.39;64.32
64638;HTU21D;51049;45.046;38.950;2023-06-19T14:31:34;21.34;64.59
64638;HTU21D;51049;45.046;38.950;2023-06-19T14:34:00;21.29;64.87
64638;HTU21D;51049;45.046;38.950;2023-06-19T14:36:26;21.22;65.05
64638;HTU21D;51049;45.046;38.950;2023-06-19T14:38:52;21.17;65.14
64638;HTU21D;51049;45.046;38.950;2023-06-19T14:41:18;21.13;65.43
64638;HTU21D;51049;45.046;38.950;2023-06-19T14:43:44;21.06;65.69
64638;HTU21D;51049;45.046;38.950;2023-06-19T14:46:10;21.01;66.07
64638;HTU21D;51049;45.046;38.950;2023-06-19T14:48:36;20.95;66.33
64638;HTU21D;51049;45.046;38.950;2023-06-19T14:51:02;20.92;66.61
64638;HTU21D;51049;45.046;38.950;2023-06-19T14:53:31;20.87;66.84
64638;HTU21D;51049;45.046;38.950;2023-06-19T14:55:57;20.85;66.98
64638;HTU21D;51049;45.046;38.950;2023-06-19T14:58:23;20.88;67.15
64638;HTU21D;51049;45.046;38.950;2023-06-19T15:00:52;20.88;67.09
64638;HTU21D;51049;45.046;38.950;2023-06-19T15:03:18;20.85;67.23
64638;HTU21D;51049;45.046;38.950;2023-06-19T15:05:44;20.84;67.52
64638;HTU21D;51049;45.046;38.950;2023-06-19T15:08:10;20.86;67.76
64638;HTU21D;51049;45.046;38.950;2023-06-19T15:10:36;20.86;68.02
64638;HTU21D;51049;45.046;38.950;2023-06-19T15:13:03;20.81;68.25
64638;HTU21D;51049;45.046;38.950;2023-06-19T15:15:29;20.77;68.45
64638;HTU21D;51049;45.046;38.950;2023-06-19T15:17:56;20.74;68.76
64638;HTU21D;51049;45.046;38.950;2023-06-19T15:20:23;20.74;68.88
64638;HTU21D;51049;45.046;38.950;2023-06-19T15:22:48;20.73;69.09
64638;HTU21D;51049;45.046;38.950;2023-06-19T15:25:15;20.74;69.21
64638;HTU21D;51049;45.046;38.950;2023-06-19T15:27:41;20.73;69.40